createdAt,value
2018-05-07T00:00:39.007Z,61.60
2018-05-07T00:03:08.025Z,61.50
2018-05-07T00:05:36.244Z,61.40
2018-05-07T00:08:04.484Z,61.50
2018-05-07T00:10:32.715Z,61.40
2018-05-07T00:13:01.025Z,61.40
2018-05-07T00:15:29.296Z,61.40
2018-05-07T00:17:57.561Z,61.40
2018-05-07T00:20:26.583Z,61.70
2018-05-07T00:22:54.826Z,61.70
2018-05-07T00:25:23.844Z,61.70
2018-05-07T00:27:52.093Z,61.70
2018-05-07T00:30:21.073Z,61.40
2018-05-07T00:32:49.285Z,62.10
2018-05-07T00:35:17.524Z,62.40
2018-05-07T00:37:45.845Z,62.60
2018-05-07T00:40:14.102Z,62.70
2018-05-07T00:42:42.326Z,62.70
2018-05-07T00:45:10.564Z,62.70
2018-05-07T00:47:38.850Z,62.60
2018-05-07T00:50:07.089Z,62.50
2018-05-07T00:52:35.313Z,62.60
2018-05-07T00:55:15.571Z,62.50
2018-05-07T00:57:43.787Z,62.50
2018-05-07T01:00:12.016Z,62.90
2018-05-07T01:02:40.230Z,63.10
2018-05-07T01:05:08.512Z,63.10
2018-05-07T01:07:36.735Z,63.10
2018-05-07T01:10:05.015Z,63.30
2018-05-07T01:12:33.239Z,63.20
2018-05-07T01:15:01.462Z,63.10
2018-05-07T01:17:29.728Z,63.80
2018-05-07T01:19:57.929Z,64.10
2018-05-07T01:22:26.172Z,63.90
2018-05-07T01:24:55.203Z,63.60
2018-05-07T01:27:23.403Z,63.50
2018-05-07T01:29:51.630Z,63.50
2018-05-07T01:32:19.906Z,63.70
2018-05-07T01:34:48.164Z,63.80
2018-05-07T01:37:17.140Z,63.90
2018-05-07T01:39:46.153Z,63.90
2018-05-07T01:42:15.172Z,64.00
2018-05-07T01:44:43.444Z,64.00
2018-05-07T01:47:11.678Z,64.20
2018-05-07T01:49:40.001Z,64.20
2018-05-07T01:52:08.290Z,64.40
2018-05-07T01:54:36.553Z,64.60
2018-05-07T01:57:04.769Z,64.70
2018-05-07T01:59:33.009Z,64.90
2018-05-07T02:02:01.222Z,65.30
2018-05-07T02:04:29.536Z,65.50
2018-05-07T02:06:57.793Z,65.60
2018-05-07T02:09:26.776Z,65.50
2018-05-07T02:11:56.522Z,65.50
2018-05-07T02:14:25.579Z,65.70
2018-05-07T02:16:53.754Z,65.70
2018-05-07T02:19:22.153Z,65.60
2018-05-07T02:21:50.503Z,65.80
2018-05-07T02:24:18.752Z,65.50
2018-05-07T02:26:47.004Z,66.10
2018-05-07T02:29:16.001Z,66.30
2018-05-07T02:31:45.012Z,66.30
2018-05-07T02:34:13.260Z,66.30
2018-05-07T02:36:42.242Z,66.50
2018-05-07T02:39:10.492Z,66.40
2018-05-07T02:41:38.865Z,67.20
2018-05-07T02:44:07.104Z,66.40
2018-05-07T02:46:35.349Z,66.20
2018-05-07T02:49:03.586Z,66.20
2018-05-07T02:51:31.819Z,66.30
2018-05-07T02:54:00.841Z,66.10
2018-05-07T02:56:29.106Z,66.00
2018-05-07T02:58:57.334Z,66.10
2018-05-07T03:01:25.575Z,66.20
2018-05-07T03:03:53.825Z,66.20
2018-05-07T03:06:22.840Z,66.10
2018-05-07T03:08:51.044Z,66.00
2018-05-07T03:11:19.284Z,66.30
2018-05-07T03:13:47.546Z,66.60
2018-05-07T03:16:16.535Z,66.40
2018-05-07T03:18:45.556Z,66.50
2018-05-07T03:21:13.856Z,66.50
2018-05-07T03:23:42.065Z,66.60
2018-05-07T03:26:11.057Z,66.60
2018-05-07T03:28:40.109Z,66.90
2018-05-07T03:31:08.458Z,66.60
2018-05-07T03:33:36.710Z,66.60
2018-05-07T03:36:04.961Z,66.60
2018-05-07T03:38:33.197Z,66.60
2018-05-07T03:41:01.434Z,66.90
2018-05-07T03:43:29.762Z,66.80
2018-05-07T03:45:57.997Z,66.80
2018-05-07T03:48:26.985Z,66.70
2018-05-07T03:50:55.245Z,66.70
2018-05-07T03:53:23.512Z,67.40
2018-05-07T03:55:51.803Z,66.70
2018-05-07T03:58:20.042Z,66.70
2018-05-07T04:00:48.302Z,66.70
2018-05-07T04:03:16.562Z,66.80
2018-05-07T04:05:45.680Z,66.80
2018-05-07T04:08:13.951Z,66.80
2018-05-07T04:10:42.194Z,67.20
2018-05-07T04:13:11.273Z,68.10
2018-05-07T04:15:39.496Z,68.00
2018-05-07T04:18:19.709Z,68.10
2018-05-07T04:21:00.017Z,67.90
2018-05-07T04:23:40.089Z,68.30
2018-05-07T04:26:08.380Z,68.10
2018-05-07T04:28:36.595Z,68.00
2018-05-07T04:31:05.827Z,68.60
2018-05-07T04:33:34.064Z,68.60
2018-05-07T04:36:03.071Z,69.00
2018-05-07T04:38:31.394Z,68.90
2018-05-07T04:40:59.610Z,69.30
2018-05-07T04:43:28.621Z,69.40
2018-05-07T04:45:56.948Z,69.40
2018-05-07T04:48:25.289Z,69.30
2018-05-07T04:50:53.542Z,69.50
2018-05-07T04:53:21.797Z,69.40
2018-05-07T04:55:50.016Z,69.30
2018-05-07T04:58:18.264Z,69.30
2018-05-07T05:00:47.246Z,70.40
2018-05-07T05:03:15.550Z,69.70
2018-05-07T05:05:44.534Z,69.70
2018-05-07T05:08:13.542Z,69.70
2018-05-07T05:10:41.803Z,69.60
2018-05-07T05:13:10.811Z,69.30
2018-05-07T05:15:39.041Z,69.30
2018-05-07T05:18:07.294Z,68.80
2018-05-07T05:20:35.582Z,68.60
2018-05-07T05:23:03.828Z,68.10
2018-05-07T05:25:32.097Z,67.90
2018-05-07T05:28:00.320Z,67.40
2018-05-07T05:30:28.634Z,67.60
2018-05-07T05:32:57.619Z,67.60
2018-05-07T05:35:26.655Z,68.10
2018-05-07T05:37:54.903Z,68.00
2018-05-07T05:40:23.892Z,68.00
2018-05-07T05:42:52.252Z,67.90
2018-05-07T05:45:21.279Z,67.90
2018-05-07T05:47:49.514Z,67.80
2018-05-07T05:50:17.802Z,68.40
2018-05-07T05:52:46.049Z,68.00
2018-05-07T05:55:14.290Z,67.00
2018-05-07T05:57:42.636Z,66.60
2018-05-07T06:00:10.926Z,66.30
2018-05-07T06:02:40.064Z,66.50
2018-05-07T06:05:08.995Z,66.50
2018-05-07T06:07:37.228Z,66.20
2018-05-07T06:10:05.486Z,65.90
2018-05-07T06:12:33.709Z,65.70
2018-05-07T06:15:02.086Z,65.50
2018-05-07T06:17:30.344Z,65.60
2018-05-07T06:19:58.601Z,65.50
2018-05-07T06:22:26.881Z,65.10
2018-05-07T06:24:55.124Z,65.10
2018-05-07T06:27:23.402Z,65.20
2018-05-07T06:29:51.794Z,65.00
2018-05-07T06:32:20.071Z,63.90
2018-05-07T06:34:49.140Z,61.70
2018-05-07T06:37:17.485Z,61.70
2018-05-07T06:39:45.719Z,61.30
2018-05-07T06:42:13.979Z,61.40
2018-05-07T06:44:42.198Z,61.00
2018-05-07T06:47:10.457Z,61.50
2018-05-07T06:49:38.698Z,61.30
2018-05-07T06:52:06.985Z,61.00
2018-05-07T06:54:35.176Z,61.00
2018-05-07T06:57:03.390Z,61.10
2018-05-07T06:59:31.636Z,61.40
2018-05-07T07:01:59.861Z,60.90
2018-05-07T07:04:28.260Z,60.80
2018-05-07T07:06:56.516Z,61.50
2018-05-07T07:09:24.765Z,60.30
2018-05-07T07:11:53.018Z,60.00
2018-05-07T07:14:21.235Z,60.10
2018-05-07T07:16:49.490Z,60.20
2018-05-07T07:19:17.700Z,60.20
2018-05-07T07:21:46.007Z,59.80
2018-05-07T07:24:14.165Z,59.20
2018-05-07T07:26:42.455Z,58.80
2018-05-07T07:29:10.684Z,58.70
2018-05-07T07:31:38.894Z,58.90
2018-05-07T07:34:07.168Z,58.50
2018-05-07T07:36:35.465Z,58.00
2018-05-07T07:39:05.360Z,57.80
2018-05-07T07:41:33.605Z,57.70
2018-05-07T07:44:01.867Z,57.60
2018-05-07T07:46:30.116Z,57.80
2018-05-07T07:48:58.340Z,58.20
2018-05-07T07:51:26.667Z,57.70
2018-05-07T07:53:54.827Z,58.00
2018-05-07T07:56:23.826Z,57.70
2018-05-07T07:58:52.845Z,56.70
2018-05-07T08:01:21.075Z,56.70
2018-05-07T08:03:49.331Z,55.60
2018-05-07T08:06:17.632Z,55.40
2018-05-07T08:08:45.858Z,55.40
2018-05-07T08:11:14.136Z,55.20
2018-05-07T08:13:42.419Z,55.40
2018-05-07T08:16:10.694Z,55.90
2018-05-07T08:18:38.933Z,55.80
2018-05-07T08:21:07.958Z,55.40
2018-05-07T08:23:36.188Z,55.40
2018-05-07T08:26:04.437Z,54.60
2018-05-07T08:28:32.701Z,54.60
2018-05-07T08:31:00.945Z,54.80
2018-05-07T08:33:29.163Z,55.00
2018-05-07T08:35:57.418Z,55.00
2018-05-07T08:38:25.640Z,54.90
2018-05-07T08:40:53.868Z,54.80
2018-05-07T08:43:22.142Z,54.50
2018-05-07T08:45:50.452Z,54.40
2018-05-07T08:48:18.684Z,54.40
2018-05-07T08:50:47.014Z,54.90
2018-05-07T08:53:15.298Z,55.30
2018-05-07T08:55:43.483Z,54.80
2018-05-07T08:58:11.720Z,53.90
2018-05-07T09:00:40.024Z,53.70
2018-05-07T09:03:08.249Z,54.00
2018-05-07T09:05:36.459Z,53.70
2018-05-07T09:08:04.742Z,53.60
2018-05-07T09:10:33.433Z,53.60
2018-05-07T09:13:01.682Z,53.40
2018-05-07T09:15:29.912Z,53.30
2018-05-07T09:17:58.931Z,53.30
2018-05-07T09:20:27.150Z,53.20
2018-05-07T09:22:55.411Z,53.70
2018-05-07T09:25:23.742Z,53.30
2018-05-07T09:27:51.980Z,53.20
2018-05-07T09:30:20.243Z,54.00
2018-05-07T09:32:48.455Z,53.60
2018-05-07T09:35:16.697Z,52.90
2018-05-07T09:37:44.931Z,52.90
2018-05-07T09:40:13.212Z,53.00
2018-05-07T09:42:41.457Z,52.90
2018-05-07T09:45:09.693Z,52.70
2018-05-07T09:47:37.951Z,52.30
2018-05-07T09:50:06.176Z,52.30
2018-05-07T09:52:34.420Z,52.50
2018-05-07T09:55:02.641Z,52.80
2018-05-07T09:57:31.697Z,52.20
2018-05-07T09:59:59.917Z,52.10
2018-05-07T10:02:28.266Z,52.20
2018-05-07T10:04:56.543Z,52.10
2018-05-07T10:07:24.884Z,51.50
2018-05-07T10:09:53.868Z,52.10
2018-05-07T10:12:22.111Z,52.00
2018-05-07T10:14:50.341Z,52.30
2018-05-07T10:17:18.564Z,51.20
2018-05-07T10:19:47.624Z,51.10
2018-05-07T10:22:15.846Z,51.00
2018-05-07T10:24:45.449Z,51.00
2018-05-07T10:27:14.447Z,50.30
2018-05-07T10:29:43.463Z,50.50
2018-05-07T10:32:11.726Z,50.40
2018-05-07T10:34:40.743Z,50.10
2018-05-07T10:37:09.047Z,50.10
2018-05-07T10:39:37.299Z,50.10
2018-05-07T10:42:05.569Z,50.60
2018-05-07T10:44:34.545Z,50.20
2018-05-07T10:47:02.797Z,50.20
2018-05-07T10:49:31.105Z,50.30
2018-05-07T10:51:59.394Z,49.60
2018-05-07T10:54:27.648Z,50.00
2018-05-07T10:56:55.957Z,49.20
2018-05-07T10:59:24.230Z,49.00
2018-05-07T11:01:52.445Z,48.70
2018-05-07T11:04:20.694Z,48.90
2018-05-07T11:06:48.976Z,49.50
2018-05-07T11:09:17.234Z,49.70
2018-05-07T11:11:45.523Z,48.60
2018-05-07T11:14:13.775Z,48.20
2018-05-07T11:16:42.025Z,47.90
2018-05-07T11:19:11.026Z,49.20
2018-05-07T11:21:40.024Z,49.60
2018-05-07T11:24:09.019Z,49.60
2018-05-07T11:26:38.028Z,49.50
2018-05-07T11:29:06.303Z,49.40
2018-05-07T11:31:34.545Z,48.90
2018-05-07T11:34:02.801Z,49.20
2018-05-07T11:36:31.058Z,49.80
2018-05-07T11:38:59.355Z,50.20
2018-05-07T11:41:27.493Z,50.20
2018-05-07T11:43:55.760Z,49.80
2018-05-07T11:46:23.983Z,48.90
2018-05-07T11:48:52.314Z,49.00
2018-05-07T11:51:20.543Z,49.50
2018-05-07T11:53:48.965Z,48.90
2018-05-07T11:56:18.699Z,49.50
2018-05-07T11:58:46.912Z,49.60
2018-05-07T12:01:15.163Z,49.60
2018-05-07T12:03:43.386Z,50.30
2018-05-07T12:06:11.676Z,50.40
2018-05-07T12:08:39.907Z,49.50
2018-05-07T12:11:08.261Z,49.10
2018-05-07T12:13:36.481Z,48.90
2018-05-07T12:16:04.733Z,49.00
2018-05-07T12:18:32.965Z,48.20
2018-05-07T12:21:01.217Z,48.30
2018-05-07T12:23:29.459Z,48.50
2018-05-07T12:25:57.741Z,48.60
2018-05-07T12:28:25.973Z,48.70
2018-05-07T12:30:54.213Z,49.20
2018-05-07T12:33:22.439Z,48.90
2018-05-07T12:35:50.684Z,49.90
2018-05-07T12:38:19.692Z,49.40
2018-05-07T12:40:47.918Z,49.40
2018-05-07T12:43:16.363Z,49.20
2018-05-07T12:45:44.575Z,47.90
2018-05-07T12:48:12.820Z,48.00
2018-05-07T12:50:41.099Z,48.30
2018-05-07T12:53:09.315Z,48.70
2018-05-07T12:55:37.572Z,48.20
2018-05-07T12:58:05.788Z,47.30
2018-05-07T13:00:34.800Z,48.20
2018-05-07T13:03:03.007Z,48.10
2018-05-07T13:05:31.290Z,48.80
2018-05-07T13:07:59.509Z,48.00
2018-05-07T13:10:28.487Z,46.20
2018-05-07T13:12:56.782Z,46.10
2018-05-07T13:15:25.758Z,46.40
2018-05-07T13:17:53.993Z,46.30
2018-05-07T13:20:22.246Z,46.20
2018-05-07T13:22:50.531Z,46.30
2018-05-07T13:25:18.781Z,46.40
2018-05-07T13:27:47.009Z,46.80
2018-05-07T13:30:15.249Z,46.90
2018-05-07T13:32:43.488Z,46.60
2018-05-07T13:35:11.723Z,46.80
2018-05-07T13:37:39.937Z,46.40
2018-05-07T13:40:08.333Z,45.30
2018-05-07T13:42:37.313Z,45.50
2018-05-07T13:45:06.319Z,45.40
2018-05-07T13:47:35.324Z,45.20
2018-05-07T13:50:03.560Z,45.20
2018-05-07T13:52:31.811Z,46.00
2018-05-07T13:55:00.033Z,46.40
2018-05-07T14:00:02.918Z,45.20
2018-05-07T14:02:31.148Z,45.50
2018-05-07T14:04:59.393Z,45.50
2018-05-07T14:07:28.383Z,45.20
2018-05-07T14:09:57.383Z,45.30
2018-05-07T14:12:26.497Z,45.40
2018-05-07T14:14:54.719Z,45.40
2018-05-07T14:17:22.943Z,45.80
2018-05-07T14:19:51.296Z,45.70
2018-05-07T14:22:19.510Z,45.40
2018-05-07T14:24:47.750Z,46.40
2018-05-07T14:27:15.982Z,45.80
2018-05-07T14:29:44.199Z,45.50
2018-05-07T14:32:12.441Z,46.00
2018-05-07T14:34:40.691Z,45.90
2018-05-07T14:37:08.927Z,45.20
2018-05-07T14:39:37.153Z,45.80
2018-05-07T14:42:05.535Z,45.90
2018-05-07T14:44:33.833Z,46.00
2018-05-07T14:47:02.064Z,46.00
2018-05-07T14:49:30.289Z,46.00
2018-05-07T14:51:58.536Z,46.00
2018-05-07T14:54:26.760Z,45.50
2018-05-07T14:56:54.998Z,45.30
2018-05-07T14:59:23.232Z,45.30
2018-05-07T15:01:52.225Z,45.50
2018-05-07T15:04:21.227Z,45.90
2018-05-07T15:06:50.307Z,45.50
2018-05-07T15:09:19.333Z,44.20
2018-05-07T15:11:47.571Z,44.10
2018-05-07T15:14:23.667Z,44.00
2018-05-07T15:16:51.927Z,43.60
2018-05-07T15:19:20.322Z,43.50
2018-05-07T15:21:48.552Z,43.40
2018-05-07T15:24:16.760Z,43.90
2018-05-07T15:26:45.005Z,44.10
2018-05-07T15:29:13.368Z,43.70
2018-05-07T15:31:42.389Z,43.10
2018-05-07T15:34:11.503Z,43.10
2018-05-07T15:36:40.506Z,43.10
2018-05-07T15:39:09.613Z,43.10
2018-05-07T15:41:37.827Z,43.40
2018-05-07T15:44:06.083Z,43.10
2018-05-07T15:46:34.299Z,43.60
2018-05-07T15:49:02.578Z,42.90
2018-05-07T15:51:31.608Z,41.70
2018-05-07T15:53:59.898Z,41.70
2018-05-07T15:56:28.117Z,42.50
2018-05-07T15:58:56.410Z,41.20
2018-05-07T16:01:25.449Z,40.90
2018-05-07T16:03:53.682Z,40.80
2018-05-07T16:06:23.289Z,39.90
2018-05-07T16:08:51.541Z,39.90
2018-05-07T16:11:20.859Z,40.10
2018-05-07T16:13:49.054Z,39.80
2018-05-07T16:16:17.298Z,39.80
2018-05-07T16:18:46.208Z,39.80
2018-05-07T16:21:14.399Z,39.20
2018-05-07T16:23:42.614Z,39.30
2018-05-07T16:26:10.875Z,39.60
2018-05-07T16:28:39.128Z,39.70
2018-05-07T16:31:07.443Z,39.90
2018-05-07T16:33:35.614Z,39.90
2018-05-07T16:36:03.860Z,40.00
2018-05-07T16:38:32.091Z,40.30
2018-05-07T16:41:00.315Z,40.40
2018-05-07T16:43:28.581Z,40.60
2018-05-07T16:45:56.802Z,40.60
2018-05-07T16:48:25.082Z,40.30
2018-05-07T16:50:53.267Z,40.40
2018-05-07T16:53:21.489Z,40.30
2018-05-07T16:55:49.793Z,39.70
2018-05-07T16:58:18.003Z,40.20
2018-05-07T17:00:46.282Z,40.20
2018-05-07T17:03:14.485Z,39.70
2018-05-07T17:05:42.707Z,39.80
2018-05-07T17:08:10.950Z,39.70
2018-05-07T17:10:39.195Z,39.50
2018-05-07T17:13:07.444Z,39.40
2018-05-07T17:15:35.655Z,39.50
2018-05-07T17:18:04.652Z,39.30
2018-05-07T17:20:33.649Z,39.30
2018-05-07T17:23:02.640Z,39.70
2018-05-07T17:25:31.660Z,39.50
2018-05-07T17:27:59.886Z,39.40
2018-05-07T17:30:28.097Z,39.40
2018-05-07T17:32:56.357Z,39.00
2018-05-07T17:35:25.328Z,37.40
2018-05-07T17:37:53.701Z,37.30
2018-05-07T17:40:21.798Z,36.30
2018-05-07T17:42:50.837Z,38.00
2018-05-07T17:45:31.031Z,37.90
2018-05-07T17:48:11.117Z,38.30
2018-05-07T17:50:39.274Z,38.10
2018-05-07T17:53:07.649Z,38.10
2018-05-07T17:55:35.837Z,37.60
2018-05-07T17:58:04.840Z,38.00
2018-05-07T18:00:33.064Z,38.00
2018-05-07T18:03:01.302Z,38.30
2018-05-07T18:05:29.522Z,38.90
2018-05-07T18:07:57.734Z,39.60
2018-05-07T18:10:26.864Z,40.50
2018-05-07T18:12:54.967Z,40.50
2018-05-07T18:15:23.209Z,41.00
2018-05-07T18:17:51.437Z,41.50
2018-05-07T18:20:19.683Z,41.90
2018-05-07T18:22:47.904Z,42.80
2018-05-07T18:25:16.878Z,42.40
2018-05-07T18:27:45.124Z,42.30
2018-05-07T18:30:13.364Z,42.50
2018-05-07T18:32:41.601Z,42.70
2018-05-07T18:35:09.822Z,42.80
2018-05-07T18:37:38.067Z,43.00
2018-05-07T18:40:06.286Z,43.20
2018-05-07T18:42:34.531Z,43.60
2018-05-07T18:45:03.519Z,44.20
2018-05-07T18:47:32.515Z,44.60
2018-05-07T18:50:00.796Z,44.50
2018-05-07T18:52:29.807Z,44.80
2018-05-07T18:54:58.039Z,44.80
2018-05-07T18:57:26.332Z,44.30
2018-05-07T18:59:54.540Z,44.50
2018-05-07T19:02:22.825Z,44.80
2018-05-07T19:04:51.158Z,44.90
2018-05-07T19:07:19.426Z,45.10
2018-05-07T19:09:47.681Z,45.30
2018-05-07T19:12:15.997Z,46.20
2018-05-07T19:14:44.256Z,45.70
2018-05-07T19:17:12.443Z,45.70
2018-05-07T19:19:40.758Z,45.90
2018-05-07T19:22:09.024Z,46.10
2018-05-07T19:24:37.234Z,46.20
2018-05-07T19:27:05.620Z,46.40
2018-05-07T19:29:34.330Z,46.60
2018-05-07T19:32:02.539Z,46.80
2018-05-07T19:34:30.774Z,47.00
2018-05-07T19:36:59.059Z,47.10
2018-05-07T19:39:27.294Z,47.30
2018-05-07T19:41:55.518Z,47.60
2018-05-07T19:44:24.569Z,48.20
2018-05-07T19:46:52.780Z,48.10
2018-05-07T19:49:21.052Z,48.10
2018-05-07T19:51:49.328Z,48.30
2018-05-07T19:54:17.570Z,48.60
2018-05-07T19:56:45.799Z,48.60
2018-05-07T19:59:14.827Z,48.80
2018-05-07T20:01:43.103Z,48.70
2018-05-07T20:04:11.409Z,48.90
2018-05-07T20:06:39.662Z,49.00
2018-05-07T20:09:07.908Z,49.00
2018-05-07T20:11:36.890Z,49.30
2018-05-07T20:14:05.924Z,49.50
2018-05-07T20:16:34.394Z,49.50
2018-05-07T20:19:02.616Z,49.70
2018-05-07T20:21:30.848Z,49.70
2018-05-07T20:23:59.066Z,49.80
2018-05-07T20:26:27.311Z,50.00
2018-05-07T20:28:55.567Z,50.20
2018-05-07T20:31:23.804Z,50.30
2018-05-07T20:33:52.035Z,50.30
2018-05-07T20:36:20.264Z,50.20
2018-05-07T20:38:49.253Z,50.80
2018-05-07T20:41:17.479Z,50.10
2018-05-07T20:43:45.709Z,50.20
2018-05-07T20:46:13.943Z,50.40
2018-05-07T20:48:42.196Z,50.60
2018-05-07T20:51:10.432Z,50.60
2018-05-07T20:53:38.672Z,50.70
2018-05-07T20:56:06.899Z,51.00
2018-05-07T20:58:35.937Z,51.70
2018-05-07T21:01:04.217Z,51.70
2018-05-07T21:03:33.147Z,52.00
2018-05-07T21:06:02.180Z,51.70
2018-05-07T21:08:30.433Z,52.20
2018-05-07T21:10:59.451Z,53.00
2018-05-07T21:13:27.833Z,53.00
2018-05-07T21:15:56.106Z,53.20
2018-05-07T21:18:24.315Z,53.40
2018-05-07T21:20:52.638Z,53.80
2018-05-07T21:23:21.619Z,54.10
2018-05-07T21:25:49.921Z,54.00
2018-05-07T21:28:18.168Z,54.80
2018-05-07T21:30:46.408Z,53.90
2018-05-07T21:33:14.637Z,54.20
2018-05-07T21:35:43.692Z,54.20
2018-05-07T21:38:11.862Z,54.00
2018-05-07T21:40:40.191Z,54.20
2018-05-07T21:43:09.193Z,53.70
2018-05-07T21:45:37.465Z,53.70
2018-05-07T21:48:05.703Z,53.40
2018-05-07T21:50:33.942Z,53.50
2018-05-07T21:53:02.197Z,53.30
2018-05-07T21:55:30.468Z,52.80
2018-05-07T21:57:58.690Z,52.60
2018-05-07T22:00:26.931Z,52.60
2018-05-07T22:02:55.195Z,52.70
2018-05-07T22:05:24.170Z,52.80
2018-05-07T22:07:53.179Z,53.20
2018-05-07T22:10:22.169Z,53.10
2018-05-07T22:12:51.178Z,53.10
2018-05-07T22:15:19.395Z,53.00
2018-05-07T22:17:47.692Z,52.90
2018-05-07T22:20:15.932Z,53.10
2018-05-07T22:22:44.188Z,53.40
2018-05-07T22:25:12.392Z,53.50
2018-05-07T22:27:40.633Z,53.60
2018-05-07T22:30:08.871Z,53.70
2018-05-07T22:32:37.193Z,53.80
2018-05-07T22:35:05.440Z,53.90
2018-05-07T22:37:34.426Z,54.20
2018-05-07T22:40:02.677Z,54.20
2018-05-07T22:42:30.934Z,54.20
2018-05-07T22:44:59.164Z,54.40
2018-05-07T22:47:28.158Z,55.10
2018-05-07T22:49:57.175Z,55.10
2018-05-07T22:52:26.153Z,55.10
2018-05-07T22:55:04.821Z,55.20
2018-05-07T22:57:33.095Z,55.10
2018-05-07T23:00:01.337Z,55.40
2018-05-07T23:02:29.366Z,55.70
2018-05-07T23:04:57.591Z,56.00
2018-05-07T23:07:25.836Z,56.00
2018-05-07T23:09:54.837Z,56.30
2018-05-07T23:12:23.849Z,56.30
2018-05-07T23:14:52.093Z,56.30
2018-05-07T23:17:20.344Z,56.50
2018-05-07T23:19:48.584Z,56.70
2018-05-07T23:22:16.864Z,57.00
2018-05-07T23:24:45.085Z,57.10
2018-05-07T23:27:13.309Z,57.20
2018-05-07T23:29:41.542Z,57.60
2018-05-07T23:32:09.778Z,57.80
2018-05-07T23:34:38.015Z,58.10
2018-05-07T23:37:07.016Z,58.80
2018-05-07T23:39:36.059Z,58.90
2018-05-07T23:42:04.276Z,58.90
2018-05-07T23:44:33.266Z,59.20
2018-05-07T23:47:01.564Z,59.20
2018-05-07T23:49:29.777Z,59.60
2018-05-07T23:51:58.057Z,60.00
2018-05-07T23:54:26.297Z,60.00
2018-05-07T23:56:54.571Z,59.90
2018-05-07T23:59:22.844Z,60.00
